AirNav   BOSE ProFlight Aviation Headset
 
 642 users online  

09A Butler-Choctaw County Airport
Butler, Alabama, USA

GOING TO BUTLER?


FAA INFORMATION EFFECTIVE 24 MAY 2018

Location

FAA Identifier: 09A
Lat/Long: 32-07-09.5000N / 088-07-38.9000W
32-07.158333N / 088-07.648333W
32.1193056 / -88.1274722
(estimated)
Elevation: 133.7 ft. / 40.8 m (surveyed)
Variation: 03W (2020)
From city: 5 miles NE of BUTLER, AL
Time zone: UTC -5 (UTC -6 during Standard Time)
Zip code: 36904

Airport Operations

Airport use: Open to the public
Activation date: 04/1969
Control tower: no
ARTCC: MEMPHIS CENTER
FSS: ANNISTON FLIGHT SERVICE STATION
NOTAMs facility: ANB (NOTAM-D service available)
Attendance: UNATNDD
Wind indicator: lighted
Segmented circle: yes
Lights: ACTVT MIRL RY 12/30 & PAPI RY 30 - CTAF.
Beacon: white-green (lighted land airport)
Operates sunset to sunrise.

Airport Communications

CTAF/UNICOM: 122.8
MERIDIAN APPROACH: 119.2
MERIDIAN DEPARTURE: 119.2
  • APCH/DEP SVC PRVDD BY ATLANTA ARTCC ON FREQS 120.55/270.25 (MONTGOMERY RCAG) WHEN MERIDIAN APCH CTL CLSD.

Nearby radio navigation aids

VOR radial/distance  VOR name  Freq  Var
EWAr127/22.4KEWANEE VORTAC113.8004E
MEIr109/37.7MERIDIAN VORTAC117.0005E

Airport Services

Parking: tiedowns
Airframe service: NONE
Powerplant service: NONE
Bottled oxygen: NONE
Bulk oxygen: NONE

Runway Information

Runway 12/30

Dimensions: 4082 x 80 ft. / 1244 x 24 m
Surface: asphalt, in fair condition
Weight bearing capacity: 
Single wheel: 15.0
Runway edge lights: medium intensity
RUNWAY 12  RUNWAY 30
Latitude: 32-07.304368N32-07.012883N
Longitude: 088-08.004210W088-07.291267W
Elevation: 116.3 ft.133.7 ft.
Gradient: 0.5%0.5%
Traffic pattern: leftleft
Runway heading: 119 magnetic, 116 true299 magnetic, 296 true
Displaced threshold: 169 ft.444 ft.
Markings: nonprecision, in fair conditionnonprecision, in fair condition
Visual slope indicator: 2-light PAPI on left (3.00 degrees glide path)
PAPI UNUSBL BYD 8 DEGS LEFT OF CNTRLN.
2-light PAPI on left (3.00 degrees glide path)
PAPI RY 30 OTS INDEFLY.
Touchdown point: yes, no lightsyes, no lights
Obstructions: 9 ft. trees, 217 ft. from runway, 126 ft. right of centerline, 1:1 slope to clear
TREE 186 FEET FROM DISPLACED THRESHOLD. 20:1 SLOPE FROM DISPLACED THRESHOLD.
42 ft. trees, 880 ft. from runway, 61 ft. left of centerline, 16:1 slope to clear

Airport Ownership and Management from official FAA records

Ownership: Publicly-owned
Owner: CHOCTAW COUNTY
117 SOUTH MULBERRY/SUITE 9
BUTLER, AL 36904
Phone 205-459-2417
Manager: TYLER DAVIDSON
117 SOUTH MULBERRY, SUITE 12
BUTLER, AL 36904
Phone (205) 459-2153

Airport Operational Statistics

Aircraft operations: avg 37/week *
81% transient general aviation
19% local general aviation
* for 12-month period ending 01 September 2018

Instrument Procedures

NOTE: All procedures below are presented as PDF files. If you need a reader for these files, you should download the free Adobe Reader.

NOT FOR NAVIGATION. Please procure official charts for flight.
FAA instrument procedures published for use from 24 May 2018 at 0901Z to 21 June 2018 at 0900Z.

 
IAPs - Instrument Approach Procedures
RNAV (GPS) RWY 12   download (202KB)
RNAV (GPS) RWY 30   download (221KB)
NOTE: Special Take-Off Minimums/Departure Procedures apply   download (291KB)

Other nearby airports with instrument procedures:

KDYA - Demopolis Regional Airport (22 nm NE)
KNMM - Meridian Naval Air Station (Mc Cain Field) (34 nm NW)
KMEI - Key Field Airport (34 nm W)
5R1 - Roy Wilcox Airport (40 nm S)
4R3 - Jackson Municipal Airport (41 nm S)
 
Loc | Ops | Rwys | IFR | FBO | Links
Com | Nav | Svcs | Stats | Notes

AirNav Hotels Sweepstakes
 
Area around 09A (Butler-Choctaw County Airport)
 
Road maps at: MapQuest Bing Google
 
Aerial photo
WARNING: Photo may not be current or correct
Aerial photo of 09A (Butler-Choctaw County Airport)
Photo taken 07-Feb-2008

Do you have a better or more recent aerial photo of Butler-Choctaw County Airport that you would like to share? If so, please send us your photo.

 
Sectional chart

 
Airport distance calculator
Flying to Butler-Choctaw County Airport? Find the distance to fly.

From to 09A

Sunrise and sunset
Times for 18-Jun-2018
 Local
(UTC-5)
 Zulu
(UTC)
Morning civil twilight05:1910:19
Sunrise05:4710:47
Sunset20:0001:00
Evening civil twilight20:2801:28

Current date and time
Zulu (UTC)  19-Jun-2018 04:33:29
Local (UTC-5)  18-Jun-2018 23:33:29
 
METAR
KDYA 
22nm NE 
190415Z AUTO 00000KT 10SM CLR 25/22 A3009 RMK AO2 T02470215
KNMM 
33nm NW 
190356Z 00000KT 10SM CLR 24/22 A3010 RMK AO2 SLP199 T02390217
KMEI 
34nm W 
190358Z AUTO 00000KT 10SM CLR 23/22 A3010 RMK AO2 SLP189 T02330217
KA08 
44nm NE 
190415Z AUTO 00000KT 10SM CLR 24/24 A3008 RMK AO2 T02370237
TAF
KNMM 
33nm NW 
1823/1923 VRB03KT 9999 FEW050 FEW120 BKN250 553009 533904 QNH3003INS FM191500 03005KT 9999 FEW040 FEW140 SCT300 553009 533904 QNH2999INS FM192100 10005KT 9999 VCTS FEW055CB SCT140 BKN300 500000 QNH2997INS AUTOMATED SENSOR METWATCH 1905 TIL 1912 T22/1911Z T34/1921Z FN20037
KMEI 
34nm W 
181749Z 1818/1918 17005KT P6SM BKN110= TAF KJAN 181749Z 1818/1918 18007KT P6SM VCSH FEW035 BKN120 FM182000 18008KT P6SM -SHRA SCT035 BKN120 FM190100 20005KT P6SM FEW100
NOTAMs
Click for the latest NOTAMs
NOTAMs are issued by the DoD/FAA and will open in a separate window not controlled by AirNav.

 

 
 

Would you like to see your business listed on this page?

 If your business provides an interesting product or service to pilots, flight crews, aircraft, or users of the Butler-Choctaw County Airport, you should consider listing it here.  To start the listing process, click on the button below
 
Add a business
 

Other Pages about Butler-Choctaw County Airport

Update a link
 
Copyright © AirNav, LLC. All rights reserved. Privacy Policy  Contact